Airfield :
LOGIN :

Register | Disclaimer

   EN    FR    IT 

 










Legend :    VFR   Marginal VFR   IFR   Intensive IFR   Very Intensive IFR
Visi :
Ceiling :
>= 8 km
>= 3000ft
5 to 8 km
1000 to 3000 ft
1500m to 5 km
500 to 1000 ft
800 to 1500m
200 to 500 ft
< 800m
< 200 ft
Symbols :   Thunderstorms  Fog  Heavy snow  Heavy precipitations  Wind > 20 kt
SIGMETs :     Misc.  Thunderstorms  Icing  Turbulence  Mountain Waves  Volcanic Ashes






- Airport Elevation : 102 ft
- IATA code : CNG


LFBG - Cognac

CURRENT METAR :
  • 021030Z AUTO 02005KT 310V110 CAVOK 24/10 Q1020

EXPIRED METARs :
  • 021000Z AUTO 02006KT 340V060 CAVOK 23/12 Q1020
  • 020930Z AUTO 03004KT 340V130 CAVOK 23/11 Q1020 NOSIG
  • 020900Z AUTO 02003KT 340V110 CAVOK 22/11 Q1020 NOSIG
  • 020830Z AUTO 10003KT 050V140 CAVOK 21/11 Q1020 NOSIG
  • 012130Z AUTO 35007KT CAVOK 18/09 Q1021
  • 020800Z AUTO 08005KT 040V120 CAVOK 20/12 Q1020 NOSIG

TAF TAF LFBG
Valid from the 02 at 09:00 until the 03 at 09:00 UTC


020800Z 0209/0309 12003KT CAVOK
BECMG 0212/0214 30010KT



MET'MAP, your aeronautical weather chart ! - Copyright ORBIFLY December 2007 - Disclaimer

ORBIFLY MET'MAP TEAM :

Programming & Development : Alexandra Zaïnal
Original concept : Baudouin d'Aumeries
Technical & hardware support : Manuel Goepfert
Assistance : Marc-Olivier Méhu




SOURCES & CREDITS :

   NOAA